sensor_id;sensor_type;location;lat;lon;timestamp;P1;durP1;ratioP1;P2;durP2;ratioP2
26963;SDS011;14521;48.148;-1.656;2023-06-19T00:03:13;6.60;;;4.22;;
26963;SDS011;14521;48.148;-1.656;2023-06-19T00:06:35;4.03;;;3.72;;
26963;SDS011;14521;48.148;-1.656;2023-06-19T00:09:57;5.28;;;4.15;;
26963;SDS011;14521;48.148;-1.656;2023-06-19T00:13:20;8.07;;;4.10;;
26963;SDS011;14521;48.148;-1.656;2023-06-19T00:16:43;6.22;;;3.90;;
26963;SDS011;14521;48.148;-1.656;2023-06-19T00:20:06;5.68;;;3.97;;
26963;SDS011;14521;48.148;-1.656;2023-06-19T00:23:29;5.53;;;4.07;;
26963;SDS011;14521;48.148;-1.656;2023-06-19T00:26:51;7.40;;;4.28;;
26963;SDS011;14521;48.148;-1.656;2023-06-19T00:30:14;5.00;;;3.45;;
26963;SDS011;14521;48.148;-1.656;2023-06-19T00:33:36;6.90;;;3.83;;
26963;SDS011;14521;48.148;-1.656;2023-06-19T00:36:59;5.15;;;3.78;;
26963;SDS011;14521;48.148;-1.656;2023-06-19T00:40:26;4.43;;;3.70;;
26963;SDS011;14521;48.148;-1.656;2023-06-19T00:43:50;9.38;;;3.78;;
26963;SDS011;14521;48.148;-1.656;2023-06-19T00:47:14;8.07;;;4.00;;
26963;SDS011;14521;48.148;-1.656;2023-06-19T00:50:36;7.32;;;3.80;;
26963;SDS011;14521;48.148;-1.656;2023-06-19T00:53:59;4.93;;;3.70;;
26963;SDS011;14521;48.148;-1.656;2023-06-19T00:57:21;4.25;;;3.80;;
26963;SDS011;14521;48.148;-1.656;2023-06-19T01:00:43;4.22;;;3.42;;
26963;SDS011;14521;48.148;-1.656;2023-06-19T01:04:24;6.22;;;4.00;;
26963;SDS011;14521;48.148;-1.656;2023-06-19T01:07:58;11.00;;;3.55;;
26963;SDS011;14521;48.148;-1.656;2023-06-19T01:11:25;5.97;;;4.20;;
26963;SDS011;14521;48.148;-1.656;2023-06-19T01:14:54;5.70;;;3.60;;
26963;SDS011;14521;48.148;-1.656;2023-06-19T01:18:20;7.15;;;4.10;;
26963;SDS011;14521;48.148;-1.656;2023-06-19T01:21:43;4.63;;;4.00;;
26963;SDS011;14521;48.148;-1.656;2023-06-19T01:25:06;4.57;;;3.55;;
26963;SDS011;14521;48.148;-1.656;2023-06-19T01:28:30;8.35;;;4.63;;
26963;SDS011;14521;48.148;-1.656;2023-06-19T01:35:34;10.57;;;6.13;;
26963;SDS011;14521;48.148;-1.656;2023-06-19T01:42:21;8.95;;;4.63;;
26963;SDS011;14521;48.148;-1.656;2023-06-19T01:45:43;7.72;;;5.13;;
26963;SDS011;14521;48.148;-1.656;2023-06-19T01:49:06;9.40;;;4.70;;
26963;SDS011;14521;48.148;-1.656;2023-06-19T01:52:32;8.52;;;4.60;;
26963;SDS011;14521;48.148;-1.656;2023-06-19T01:55:55;8.82;;;4.35;;
26963;SDS011;14521;48.148;-1.656;2023-06-19T01:59:17;11.00;;;4.75;;
26963;SDS011;14521;48.148;-1.656;2023-06-19T02:02:40;4.35;;;3.95;;
26963;SDS011;14521;48.148;-1.656;2023-06-19T02:06:02;9.32;;;5.40;;
26963;SDS011;14521;48.148;-1.656;2023-06-19T02:09:24;10.38;;;4.95;;
26963;SDS011;14521;48.148;-1.656;2023-06-19T02:12:48;9.52;;;4.47;;
26963;SDS011;14521;48.148;-1.656;2023-06-19T02:16:10;8.23;;;4.57;;
26963;SDS011;14521;48.148;-1.656;2023-06-19T02:19:32;7.15;;;4.78;;
26963;SDS011;14521;48.148;-1.656;2023-06-19T02:22:54;5.45;;;4.20;;
26963;SDS011;14521;48.148;-1.656;2023-06-19T02:26:17;7.25;;;4.68;;
26963;SDS011;14521;48.148;-1.656;2023-06-19T02:29:41;7.23;;;4.53;;
26963;SDS011;14521;48.148;-1.656;2023-06-19T02:33:03;11.90;;;4.50;;
26963;SDS011;14521;48.148;-1.656;2023-06-19T02:36:26;9.55;;;5.32;;
26963;SDS011;14521;48.148;-1.656;2023-06-19T02:39:48;8.85;;;4.68;;
26963;SDS011;14521;48.148;-1.656;2023-06-19T02:43:10;5.97;;;4.45;;
26963;SDS011;14521;48.148;-1.656;2023-06-19T02:46:33;9.00;;;4.75;;
26963;SDS011;14521;48.148;-1.656;2023-06-19T02:49:56;8.15;;;4.53;;
26963;SDS011;14521;48.148;-1.656;2023-06-19T02:53:19;8.52;;;5.10;;
26963;SDS011;14521;48.148;-1.656;2023-06-19T02:56:41;7.70;;;4.72;;
26963;SDS011;14521;48.148;-1.656;2023-06-19T03:00:04;5.72;;;4.50;;
26963;SDS011;14521;48.148;-1.656;2023-06-19T03:03:31;6.00;;;4.15;;
26963;SDS011;14521;48.148;-1.656;2023-06-19T03:06:53;10.95;;;4.40;;
26963;SDS011;14521;48.148;-1.656;2023-06-19T03:10:16;7.90;;;5.30;;
26963;SDS011;14521;48.148;-1.656;2023-06-19T03:17:08;7.25;;;4.95;;
26963;SDS011;14521;48.148;-1.656;2023-06-19T03:20:31;6.47;;;4.47;;
26963;SDS011;14521;48.148;-1.656;2023-06-19T03:23:54;9.07;;;4.63;;
26963;SDS011;14521;48.148;-1.656;2023-06-19T03:27:18;7.85;;;4.57;;
26963;SDS011;14521;48.148;-1.656;2023-06-19T03:30:40;6.63;;;4.30;;
26963;SDS011;14521;48.148;-1.656;2023-06-19T03:34:03;22.73;;;4.90;;
26963;SDS011;14521;48.148;-1.656;2023-06-19T03:37:26;8.05;;;4.78;;
26963;SDS011;14521;48.148;-1.656;2023-06-19T03:40:49;11.57;;;4.50;;
26963;SDS011;14521;48.148;-1.656;2023-06-19T03:44:11;8.07;;;4.63;;
26963;SDS011;14521;48.148;-1.656;2023-06-19T03:47:33;5.60;;;4.40;;
26963;SDS011;14521;48.148;-1.656;2023-06-19T03:50:55;6.00;;;3.95;;
26963;SDS011;14521;48.148;-1.656;2023-06-19T03:54:18;7.18;;;4.70;;
26963;SDS011;14521;48.148;-1.656;2023-06-19T03:57:40;4.93;;;4.47;;
26963;SDS011;14521;48.148;-1.656;2023-06-19T04:01:03;6.53;;;4.40;;
26963;SDS011;14521;48.148;-1.656;2023-06-19T04:04:27;4.50;;;4.10;;
26963;SDS011;14521;48.148;-1.656;2023-06-19T04:07:50;7.03;;;4.47;;
26963;SDS011;14521;48.148;-1.656;2023-06-19T04:11:12;5.80;;;4.18;;
26963;SDS011;14521;48.148;-1.656;2023-06-19T04:14:34;7.00;;;4.20;;
26963;SDS011;14521;48.148;-1.656;2023-06-19T04:17:57;7.20;;;4.18;;
26963;SDS011;14521;48.148;-1.656;2023-06-19T04:21:19;7.78;;;4.35;;
26963;SDS011;14521;48.148;-1.656;2023-06-19T04:24:41;4.70;;;4.28;;
26963;SDS011;14521;48.148;-1.656;2023-06-19T04:28:03;5.25;;;4.70;;
26963;SDS011;14521;48.148;-1.656;2023-06-19T04:31:26;7.82;;;4.03;;
26963;SDS011;14521;48.148;-1.656;2023-06-19T04:34:50;5.95;;;4.00;;
26963;SDS011;14521;48.148;-1.656;2023-06-19T04:38:12;10.88;;;4.28;;
26963;SDS011;14521;48.148;-1.656;2023-06-19T04:41:36;10.83;;;4.40;;
26963;SDS011;14521;48.148;-1.656;2023-06-19T04:45:00;4.32;;;3.92;;
26963;SDS011;14521;48.148;-1.656;2023-06-19T04:48:22;4.88;;;4.38;;
26963;SDS011;14521;48.148;-1.656;2023-06-19T04:51:46;7.55;;;5.00;;
26963;SDS011;14521;48.148;-1.656;2023-06-19T04:55:09;7.40;;;4.68;;
26963;SDS011;14521;48.148;-1.656;2023-06-19T04:58:32;7.38;;;4.70;;
26963;SDS011;14521;48.148;-1.656;2023-06-19T05:01:54;7.32;;;4.68;;
26963;SDS011;14521;48.148;-1.656;2023-06-19T05:05:17;6.90;;;4.20;;
26963;SDS011;14521;48.148;-1.656;2023-06-19T05:08:44;6.10;;;4.32;;
26963;SDS011;14521;48.148;-1.656;2023-06-19T05:12:06;5.55;;;4.25;;
26963;SDS011;14521;48.148;-1.656;2023-06-19T05:15:28;4.63;;;3.85;;
26963;SDS011;14521;48.148;-1.656;2023-06-19T05:18:51;6.07;;;4.18;;
26963;SDS011;14521;48.148;-1.656;2023-06-19T05:22:13;7.20;;;4.65;;
26963;SDS011;14521;48.148;-1.656;2023-06-19T05:25:35;5.82;;;4.35;;
26963;SDS011;14521;48.148;-1.656;2023-06-19T05:28:58;11.35;;;4.95;;
26963;SDS011;14521;48.148;-1.656;2023-06-19T05:32:20;7.35;;;4.38;;
26963;SDS011;14521;48.148;-1.656;2023-06-19T05:35:42;6.28;;;4.68;;
26963;SDS011;14521;48.148;-1.656;2023-06-19T05:39:05;10.35;;;4.93;;
26963;SDS011;14521;48.148;-1.656;2023-06-19T05:42:27;10.75;;;4.78;;
26963;SDS011;14521;48.148;-1.656;2023-06-19T05:45:49;6.20;;;4.38;;
26963;SDS011;14521;48.148;-1.656;2023-06-19T05:49:12;6.32;;;4.80;;
26963;SDS011;14521;48.148;-1.656;2023-06-19T05:52:34;6.28;;;4.57;;
26963;SDS011;14521;48.148;-1.656;2023-06-19T05:55:57;8.20;;;4.65;;
26963;SDS011;14521;48.148;-1.656;2023-06-19T05:59:19;5.57;;;4.47;;
26963;SDS011;14521;48.148;-1.656;2023-06-19T06:02:43;11.15;;;3.80;;
26963;SDS011;14521;48.148;-1.656;2023-06-19T06:06:05;4.13;;;3.72;;
26963;SDS011;14521;48.148;-1.656;2023-06-19T06:09:28;5.15;;;3.78;;
26963;SDS011;14521;48.148;-1.656;2023-06-19T06:12:50;14.45;;;4.20;;
26963;SDS011;14521;48.148;-1.656;2023-06-19T06:16:13;6.78;;;4.78;;
26963;SDS011;14521;48.148;-1.656;2023-06-19T06:19:36;4.82;;;4.20;;
26963;SDS011;14521;48.148;-1.656;2023-06-19T06:22:58;10.00;;;4.15;;
26963;SDS011;14521;48.148;-1.656;2023-06-19T06:26:21;6.32;;;3.90;;
26963;SDS011;14521;48.148;-1.656;2023-06-19T06:29:43;5.88;;;4.93;;
26963;SDS011;14521;48.148;-1.656;2023-06-19T06:33:05;14.15;;;5.18;;
26963;SDS011;14521;48.148;-1.656;2023-06-19T06:36:27;10.40;;;5.20;;
26963;SDS011;14521;48.148;-1.656;2023-06-19T06:39:58;10.07;;;5.45;;
26963;SDS011;14521;48.148;-1.656;2023-06-19T06:43:20;11.60;;;6.45;;
26963;SDS011;14521;48.148;-1.656;2023-06-19T06:46:43;13.68;;;5.88;;
26963;SDS011;14521;48.148;-1.656;2023-06-19T06:50:06;9.75;;;5.65;;
26963;SDS011;14521;48.148;-1.656;2023-06-19T06:53:29;16.05;;;6.00;;
26963;SDS011;14521;48.148;-1.656;2023-06-19T06:56:53;10.33;;;6.03;;
26963;SDS011;14521;48.148;-1.656;2023-06-19T07:00:19;14.30;;;6.80;;
26963;SDS011;14521;48.148;-1.656;2023-06-19T07:03:42;11.80;;;6.68;;
26963;SDS011;14521;48.148;-1.656;2023-06-19T07:07:04;12.98;;;6.85;;
26963;SDS011;14521;48.148;-1.656;2023-06-19T07:10:28;13.80;;;6.20;;
26963;SDS011;14521;48.148;-1.656;2023-06-19T07:13:50;9.85;;;5.95;;
26963;SDS011;14521;48.148;-1.656;2023-06-19T07:17:12;11.40;;;5.85;;
26963;SDS011;14521;48.148;-1.656;2023-06-19T07:20:35;12.38;;;5.72;;
26963;SDS011;14521;48.148;-1.656;2023-06-19T07:23:57;11.57;;;5.45;;
26963;SDS011;14521;48.148;-1.656;2023-06-19T07:27:21;14.77;;;6.07;;
26963;SDS011;14521;48.148;-1.656;2023-06-19T07:30:43;10.98;;;6.50;;
26963;SDS011;14521;48.148;-1.656;2023-06-19T07:34:06;12.25;;;4.95;;
26963;SDS011;14521;48.148;-1.656;2023-06-19T07:37:29;10.48;;;5.85;;
26963;SDS011;14521;48.148;-1.656;2023-06-19T07:40:51;11.52;;;5.88;;
26963;SDS011;14521;48.148;-1.656;2023-06-19T07:44:13;11.18;;;5.20;;
26963;SDS011;14521;48.148;-1.656;2023-06-19T07:47:39;10.73;;;5.30;;
26963;SDS011;14521;48.148;-1.656;2023-06-19T07:51:01;12.85;;;6.10;;
26963;SDS011;14521;48.148;-1.656;2023-06-19T07:54:24;11.32;;;5.20;;
26963;SDS011;14521;48.148;-1.656;2023-06-19T07:57:46;7.72;;;5.93;;
26963;SDS011;14521;48.148;-1.656;2023-06-19T08:01:08;11.40;;;5.55;;
26963;SDS011;14521;48.148;-1.656;2023-06-19T08:04:32;10.65;;;6.22;;
26963;SDS011;14521;48.148;-1.656;2023-06-19T08:07:56;12.85;;;5.80;;
26963;SDS011;14521;48.148;-1.656;2023-06-19T08:11:18;10.93;;;5.80;;
26963;SDS011;14521;48.148;-1.656;2023-06-19T08:14:40;10.07;;;5.65;;
26963;SDS011;14521;48.148;-1.656;2023-06-19T08:18:03;13.15;;;6.70;;
26963;SDS011;14521;48.148;-1.656;2023-06-19T08:21:25;14.02;;;5.90;;
26963;SDS011;14521;48.148;-1.656;2023-06-19T08:24:48;13.70;;;5.68;;
26963;SDS011;14521;48.148;-1.656;2023-06-19T08:28:10;13.50;;;6.45;;
26963;SDS011;14521;48.148;-1.656;2023-06-19T08:31:32;10.27;;;5.68;;
26963;SDS011;14521;48.148;-1.656;2023-06-19T08:34:55;11.68;;;5.50;;
26963;SDS011;14521;48.148;-1.656;2023-06-19T08:38:18;10.15;;;5.10;;
26963;SDS011;14521;48.148;-1.656;2023-06-19T08:41:40;6.38;;;5.00;;
26963;SDS011;14521;48.148;-1.656;2023-06-19T08:45:04;8.80;;;5.00;;
26963;SDS011;14521;48.148;-1.656;2023-06-19T08:48:29;15.20;;;5.53;;
26963;SDS011;14521;48.148;-1.656;2023-06-19T08:51:51;19.83;;;4.93;;
26963;SDS011;14521;48.148;-1.656;2023-06-19T08:55:13;10.80;;;4.80;;
26963;SDS011;14521;48.148;-1.656;2023-06-19T08:58:36;10.70;;;4.68;;
26963;SDS011;14521;48.148;-1.656;2023-06-19T09:01:58;11.75;;;5.22;;
26963;SDS011;14521;48.148;-1.656;2023-06-19T09:05:24;9.82;;;4.60;;
26963;SDS011;14521;48.148;-1.656;2023-06-19T09:08:57;8.32;;;4.28;;
26963;SDS011;14521;48.148;-1.656;2023-06-19T09:12:23;7.95;;;4.07;;
26963;SDS011;14521;48.148;-1.656;2023-06-19T09:16:01;8.98;;;4.40;;
26963;SDS011;14521;48.148;-1.656;2023-06-19T09:19:28;11.00;;;4.60;;
26963;SDS011;14521;48.148;-1.656;2023-06-19T09:22:53;6.13;;;4.45;;
26963;SDS011;14521;48.148;-1.656;2023-06-19T09:26:19;8.90;;;4.35;;
26963;SDS011;14521;48.148;-1.656;2023-06-19T09:29:42;11.20;;;4.00;;
26963;SDS011;14521;48.148;-1.656;2023-06-19T09:33:06;9.75;;;4.43;;
26963;SDS011;14521;48.148;-1.656;2023-06-19T09:36:30;8.68;;;4.40;;
26963;SDS011;14521;48.148;-1.656;2023-06-19T09:39:58;6.35;;;3.67;;
26963;SDS011;14521;48.148;-1.656;2023-06-19T09:43:26;6.53;;;3.40;;
26963;SDS011;14521;48.148;-1.656;2023-06-19T09:47:06;8.13;;;3.47;;
26963;SDS011;14521;48.148;-1.656;2023-06-19T09:50:39;7.25;;;3.25;;
26963;SDS011;14521;48.148;-1.656;2023-06-19T09:54:03;5.75;;;3.00;;
26963;SDS011;14521;48.148;-1.656;2023-06-19T10:00:50;7.25;;;3.28;;
26963;SDS011;14521;48.148;-1.656;2023-06-19T10:04:13;4.90;;;3.83;;
26963;SDS011;14521;48.148;-1.656;2023-06-19T10:07:36;8.57;;;3.00;;
26963;SDS011;14521;48.148;-1.656;2023-06-19T10:10:58;3.85;;;2.80;;
26963;SDS011;14521;48.148;-1.656;2023-06-19T10:14:21;3.67;;;3.05;;
26963;SDS011;14521;48.148;-1.656;2023-06-19T10:17:45;6.60;;;3.40;;
26963;SDS011;14521;48.148;-1.656;2023-06-19T10:21:19;5.90;;;3.30;;
26963;SDS011;14521;48.148;-1.656;2023-06-19T10:24:48;4.25;;;3.03;;
26963;SDS011;14521;48.148;-1.656;2023-06-19T10:31:45;4.15;;;3.55;;
26963;SDS011;14521;48.148;-1.656;2023-06-19T10:35:11;10.15;;;4.72;;
26963;SDS011;14521;48.148;-1.656;2023-06-19T10:38:34;5.90;;;3.70;;
26963;SDS011;14521;48.148;-1.656;2023-06-19T10:41:56;6.18;;;3.97;;
26963;SDS011;14521;48.148;-1.656;2023-06-19T10:45:19;7.03;;;3.88;;
26963;SDS011;14521;48.148;-1.656;2023-06-19T10:48:42;5.53;;;3.45;;
26963;SDS011;14521;48.148;-1.656;2023-06-19T10:52:05;7.95;;;3.90;;
26963;SDS011;14521;48.148;-1.656;2023-06-19T10:55:27;4.10;;;3.38;;
26963;SDS011;14521;48.148;-1.656;2023-06-19T10:59:06;5.63;;;3.08;;
26963;SDS011;14521;48.148;-1.656;2023-06-19T11:02:38;2.90;;;2.28;;
26963;SDS011;14521;48.148;-1.656;2023-06-19T11:06:05;6.18;;;2.80;;
26963;SDS011;14521;48.148;-1.656;2023-06-19T11:09:27;4.25;;;2.40;;
26963;SDS011;14521;48.148;-1.656;2023-06-19T11:16:16;6.03;;;3.67;;
26963;SDS011;14521;48.148;-1.656;2023-06-19T11:19:38;6.07;;;3.05;;
26963;SDS011;14521;48.148;-1.656;2023-06-19T11:23:03;5.32;;;2.90;;
26963;SDS011;14521;48.148;-1.656;2023-06-19T11:26:25;4.25;;;3.00;;
26963;SDS011;14521;48.148;-1.656;2023-06-19T11:29:48;6.65;;;3.33;;
26963;SDS011;14521;48.148;-1.656;2023-06-19T11:33:21;5.57;;;3.00;;
26963;SDS011;14521;48.148;-1.656;2023-06-19T11:36:44;4.80;;;3.05;;
26963;SDS011;14521;48.148;-1.656;2023-06-19T11:40:08;7.18;;;3.17;;
26963;SDS011;14521;48.148;-1.656;2023-06-19T11:43:35;8.23;;;4.18;;
26963;SDS011;14521;48.148;-1.656;2023-06-19T11:47:00;4.30;;;3.22;;
26963;SDS011;14521;48.148;-1.656;2023-06-19T11:50:28;4.93;;;4.43;;
26963;SDS011;14521;48.148;-1.656;2023-06-19T11:53:52;3.72;;;3.33;;
26963;SDS011;14521;48.148;-1.656;2023-06-19T11:57:14;8.00;;;3.40;;
26963;SDS011;14521;48.148;-1.656;2023-06-19T12:00:36;4.53;;;3.45;;
26963;SDS011;14521;48.148;-1.656;2023-06-19T12:03:59;4.35;;;3.15;;
26963;SDS011;14521;48.148;-1.656;2023-06-19T12:07:22;4.50;;;3.30;;
26963;SDS011;14521;48.148;-1.656;2023-06-19T12:10:45;4.13;;;2.80;;
26963;SDS011;14521;48.148;-1.656;2023-06-19T12:14:07;6.53;;;2.28;;
26963;SDS011;14521;48.148;-1.656;2023-06-19T12:17:29;2.90;;;2.33;;
26963;SDS011;14521;48.148;-1.656;2023-06-19T12:20:51;2.78;;;2.40;;
26963;SDS011;14521;48.148;-1.656;2023-06-19T12:24:14;4.05;;;2.25;;
26963;SDS011;14521;48.148;-1.656;2023-06-19T12:27:39;4.32;;;2.45;;
26963;SDS011;14521;48.148;-1.656;2023-06-19T12:31:02;2.40;;;2.13;;
26963;SDS011;14521;48.148;-1.656;2023-06-19T12:34:25;4.32;;;2.05;;
26963;SDS011;14521;48.148;-1.656;2023-06-19T12:37:52;3.90;;;2.50;;
26963;SDS011;14521;48.148;-1.656;2023-06-19T12:41:16;2.85;;;2.33;;
26963;SDS011;14521;48.148;-1.656;2023-06-19T12:44:39;5.25;;;2.00;;
26963;SDS011;14521;48.148;-1.656;2023-06-19T12:48:02;2.65;;;2.10;;
26963;SDS011;14521;48.148;-1.656;2023-06-19T12:51:24;2.42;;;1.92;;
26963;SDS011;14521;48.148;-1.656;2023-06-19T12:54:46;3.42;;;2.03;;
26963;SDS011;14521;48.148;-1.656;2023-06-19T12:58:09;2.33;;;2.08;;
26963;SDS011;14521;48.148;-1.656;2023-06-19T13:01:32;3.05;;;1.80;;
26963;SDS011;14521;48.148;-1.656;2023-06-19T13:04:54;2.22;;;1.90;;
26963;SDS011;14521;48.148;-1.656;2023-06-19T13:08:16;6.03;;;2.50;;
26963;SDS011;14521;48.148;-1.656;2023-06-19T13:11:39;3.47;;;2.20;;
26963;SDS011;14521;48.148;-1.656;2023-06-19T13:15:01;4.15;;;2.33;;
26963;SDS011;14521;48.148;-1.656;2023-06-19T13:18:23;3.15;;;2.30;;
26963;SDS011;14521;48.148;-1.656;2023-06-19T13:21:46;6.30;;;2.25;;
26963;SDS011;14521;48.148;-1.656;2023-06-19T13:25:08;2.90;;;2.70;;
26963;SDS011;14521;48.148;-1.656;2023-06-19T13:28:31;4.05;;;2.58;;
26963;SDS011;14521;48.148;-1.656;2023-06-19T13:31:53;3.67;;;2.67;;
26963;SDS011;14521;48.148;-1.656;2023-06-19T13:35:15;3.35;;;2.67;;
26963;SDS011;14521;48.148;-1.656;2023-06-19T13:38:38;3.80;;;3.08;;
26963;SDS011;14521;48.148;-1.656;2023-06-19T13:42:02;2.60;;;2.40;;
26963;SDS011;14521;48.148;-1.656;2023-06-19T13:45:25;2.67;;;2.40;;
26963;SDS011;14521;48.148;-1.656;2023-06-19T13:48:48;4.80;;;2.60;;
26963;SDS011;14521;48.148;-1.656;2023-06-19T13:52:13;2.20;;;2.10;;
26963;SDS011;14521;48.148;-1.656;2023-06-19T13:55:35;2.65;;;2.30;;
26963;SDS011;14521;48.148;-1.656;2023-06-19T13:58:58;3.60;;;2.00;;
26963;SDS011;14521;48.148;-1.656;2023-06-19T14:02:20;3.42;;;2.50;;
26963;SDS011;14521;48.148;-1.656;2023-06-19T14:05:43;2.83;;;2.33;;
26963;SDS011;14521;48.148;-1.656;2023-06-19T14:09:05;2.03;;;1.80;;
26963;SDS011;14521;48.148;-1.656;2023-06-19T14:12:28;2.17;;;1.92;;
26963;SDS011;14521;48.148;-1.656;2023-06-19T14:15:50;2.83;;;1.63;;
26963;SDS011;14521;48.148;-1.656;2023-06-19T14:19:14;4.50;;;2.28;;
26963;SDS011;14521;48.148;-1.656;2023-06-19T14:22:36;4.68;;;2.40;;
26963;SDS011;14521;48.148;-1.656;2023-06-19T14:25:59;3.42;;;2.22;;
26963;SDS011;14521;48.148;-1.656;2023-06-19T14:29:21;3.28;;;2.20;;
26963;SDS011;14521;48.148;-1.656;2023-06-19T14:32:43;4.40;;;2.13;;
26963;SDS011;14521;48.148;-1.656;2023-06-19T14:36:06;1.90;;;1.80;;
26963;SDS011;14521;48.148;-1.656;2023-06-19T14:39:28;5.72;;;2.25;;
26963;SDS011;14521;48.148;-1.656;2023-06-19T14:42:52;3.72;;;2.03;;
26963;SDS011;14521;48.148;-1.656;2023-06-19T14:46:14;2.28;;;2.08;;
26963;SDS011;14521;48.148;-1.656;2023-06-19T14:49:57;3.13;;;2.67;;
26963;SDS011;14521;48.148;-1.656;2023-06-19T14:53:19;3.60;;;2.33;;
26963;SDS011;14521;48.148;-1.656;2023-06-19T14:56:41;7.00;;;2.20;;
26963;SDS011;14521;48.148;-1.656;2023-06-19T15:00:04;2.33;;;2.10;;
26963;SDS011;14521;48.148;-1.656;2023-06-19T15:03:27;4.32;;;2.78;;
26963;SDS011;14521;48.148;-1.656;2023-06-19T15:06:49;3.15;;;2.35;;
26963;SDS011;14521;48.148;-1.656;2023-06-19T15:10:12;2.83;;;2.22;;
26963;SDS011;14521;48.148;-1.656;2023-06-19T15:13:35;3.10;;;2.22;;
26963;SDS011;14521;48.148;-1.656;2023-06-19T15:16:57;2.25;;;2.15;;
26963;SDS011;14521;48.148;-1.656;2023-06-19T15:20:20;4.65;;;2.17;;
26963;SDS011;14521;48.148;-1.656;2023-06-19T15:23:43;2.95;;;2.45;;
26963;SDS011;14521;48.148;-1.656;2023-06-19T15:27:05;4.55;;;2.28;;
26963;SDS011;14521;48.148;-1.656;2023-06-19T15:30:27;2.05;;;1.92;;
26963;SDS011;14521;48.148;-1.656;2023-06-19T15:33:49;5.75;;;2.22;;
26963;SDS011;14521;48.148;-1.656;2023-06-19T15:37:12;3.15;;;2.50;;
26963;SDS011;14521;48.148;-1.656;2023-06-19T15:40:34;3.85;;;2.15;;
26963;SDS011;14521;48.148;-1.656;2023-06-19T15:43:56;4.18;;;2.50;;
26963;SDS011;14521;48.148;-1.656;2023-06-19T15:47:18;3.67;;;2.28;;
26963;SDS011;14521;48.148;-1.656;2023-06-19T15:50:41;3.22;;;2.28;;
26963;SDS011;14521;48.148;-1.656;2023-06-19T15:54:03;3.63;;;2.40;;
26963;SDS011;14521;48.148;-1.656;2023-06-19T15:57:25;2.42;;;2.13;;
26963;SDS011;14521;48.148;-1.656;2023-06-19T16:00:48;4.03;;;2.50;;
26963;SDS011;14521;48.148;-1.656;2023-06-19T16:04:14;4.57;;;2.33;;
26963;SDS011;14521;48.148;-1.656;2023-06-19T16:07:36;4.38;;;2.42;;
26963;SDS011;14521;48.148;-1.656;2023-06-19T16:10:58;8.05;;;2.40;;
26963;SDS011;14521;48.148;-1.656;2023-06-19T16:14:21;3.70;;;2.58;;
26963;SDS011;14521;48.148;-1.656;2023-06-19T16:17:43;12.00;;;2.63;;
26963;SDS011;14521;48.148;-1.656;2023-06-19T16:21:07;5.00;;;2.90;;
26963;SDS011;14521;48.148;-1.656;2023-06-19T16:24:29;2.72;;;2.53;;
26963;SDS011;14521;48.148;-1.656;2023-06-19T16:27:52;2.78;;;2.58;;
26963;SDS011;14521;48.148;-1.656;2023-06-19T16:31:14;4.82;;;2.95;;
26963;SDS011;14521;48.148;-1.656;2023-06-19T16:34:36;3.28;;;2.90;;
26963;SDS011;14521;48.148;-1.656;2023-06-19T16:37:58;5.93;;;3.28;;
26963;SDS011;14521;48.148;-1.656;2023-06-19T16:41:21;5.85;;;2.63;;
26963;SDS011;14521;48.148;-1.656;2023-06-19T16:44:43;4.40;;;2.97;;
26963;SDS011;14521;48.148;-1.656;2023-06-19T16:48:05;5.05;;;2.92;;
26963;SDS011;14521;48.148;-1.656;2023-06-19T16:51:27;4.30;;;3.00;;
26963;SDS011;14521;48.148;-1.656;2023-06-19T16:54:50;3.25;;;3.05;;
26963;SDS011;14521;48.148;-1.656;2023-06-19T16:58:13;4.55;;;2.83;;
26963;SDS011;14521;48.148;-1.656;2023-06-19T17:01:35;8.38;;;3.13;;
26963;SDS011;14521;48.148;-1.656;2023-06-19T17:04:58;3.22;;;2.92;;
26963;SDS011;14521;48.148;-1.656;2023-06-19T17:08:20;4.43;;;3.10;;
26963;SDS011;14521;48.148;-1.656;2023-06-19T17:11:43;4.45;;;3.20;;
26963;SDS011;14521;48.148;-1.656;2023-06-19T17:15:06;4.70;;;3.17;;
26963;SDS011;14521;48.148;-1.656;2023-06-19T17:18:29;4.93;;;3.10;;
26963;SDS011;14521;48.148;-1.656;2023-06-19T17:21:51;4.45;;;2.85;;
26963;SDS011;14521;48.148;-1.656;2023-06-19T17:25:13;6.25;;;2.97;;
26963;SDS011;14521;48.148;-1.656;2023-06-19T17:28:36;6.47;;;3.03;;
26963;SDS011;14521;48.148;-1.656;2023-06-19T17:31:59;6.93;;;3.00;;
26963;SDS011;14521;48.148;-1.656;2023-06-19T17:35:21;6.53;;;2.90;;
26963;SDS011;14521;48.148;-1.656;2023-06-19T17:38:45;5.43;;;3.33;;
26963;SDS011;14521;48.148;-1.656;2023-06-19T17:42:08;3.58;;;3.28;;
26963;SDS011;14521;48.148;-1.656;2023-06-19T17:45:31;3.72;;;2.95;;
26963;SDS011;14521;48.148;-1.656;2023-06-19T17:48:53;4.63;;;2.90;;
26963;SDS011;14521;48.148;-1.656;2023-06-19T17:52:16;3.67;;;2.95;;
26963;SDS011;14521;48.148;-1.656;2023-06-19T17:55:38;3.80;;;2.70;;
26963;SDS011;14521;48.148;-1.656;2023-06-19T17:59:03;3.25;;;2.75;;
26963;SDS011;14521;48.148;-1.656;2023-06-19T18:02:26;6.63;;;2.72;;
26963;SDS011;14521;48.148;-1.656;2023-06-19T18:05:49;5.72;;;2.50;;
26963;SDS011;14521;48.148;-1.656;2023-06-19T18:09:11;5.30;;;2.95;;
26963;SDS011;14521;48.148;-1.656;2023-06-19T18:12:34;2.85;;;2.53;;
26963;SDS011;14521;48.148;-1.656;2023-06-19T18:15:57;5.50;;;2.80;;
26963;SDS011;14521;48.148;-1.656;2023-06-19T18:19:33;7.07;;;2.63;;
26963;SDS011;14521;48.148;-1.656;2023-06-19T18:22:55;3.70;;;2.55;;
26963;SDS011;14521;48.148;-1.656;2023-06-19T18:26:17;3.75;;;2.50;;
26963;SDS011;14521;48.148;-1.656;2023-06-19T18:29:40;3.30;;;2.42;;
26963;SDS011;14521;48.148;-1.656;2023-06-19T18:33:02;9.73;;;2.85;;
26963;SDS011;14521;48.148;-1.656;2023-06-19T18:36:25;4.70;;;2.35;;
26963;SDS011;14521;48.148;-1.656;2023-06-19T18:39:48;6.50;;;2.72;;
26963;SDS011;14521;48.148;-1.656;2023-06-19T18:43:13;3.10;;;2.72;;
26963;SDS011;14521;48.148;-1.656;2023-06-19T18:46:35;5.20;;;2.97;;
26963;SDS011;14521;48.148;-1.656;2023-06-19T18:49:58;3.05;;;2.83;;
26963;SDS011;14521;48.148;-1.656;2023-06-19T18:53:20;3.17;;;2.70;;
26963;SDS011;14521;48.148;-1.656;2023-06-19T18:56:42;7.18;;;2.97;;
26963;SDS011;14521;48.148;-1.656;2023-06-19T19:00:05;2.95;;;2.65;;
26963;SDS011;14521;48.148;-1.656;2023-06-19T19:03:28;4.10;;;3.17;;
26963;SDS011;14521;48.148;-1.656;2023-06-19T19:06:50;2.97;;;2.67;;
26963;SDS011;14521;48.148;-1.656;2023-06-19T19:10:13;4.47;;;2.88;;
26963;SDS011;14521;48.148;-1.656;2023-06-19T19:13:35;4.10;;;2.58;;
26963;SDS011;14521;48.148;-1.656;2023-06-19T19:16:57;2.85;;;2.63;;
26963;SDS011;14521;48.148;-1.656;2023-06-19T19:20:20;3.67;;;2.83;;
26963;SDS011;14521;48.148;-1.656;2023-06-19T19:23:42;3.28;;;3.08;;
26963;SDS011;14521;48.148;-1.656;2023-06-19T19:27:05;5.93;;;3.10;;
26963;SDS011;14521;48.148;-1.656;2023-06-19T19:30:27;3.17;;;2.97;;
26963;SDS011;14521;48.148;-1.656;2023-06-19T19:33:50;2.95;;;2.65;;
26963;SDS011;14521;48.148;-1.656;2023-06-19T19:37:13;3.20;;;2.90;;
26963;SDS011;14521;48.148;-1.656;2023-06-19T19:40:35;3.30;;;3.00;;
26963;SDS011;14521;48.148;-1.656;2023-06-19T19:43:57;3.88;;;3.03;;
26963;SDS011;14521;48.148;-1.656;2023-06-19T19:47:20;3.40;;;2.75;;
26963;SDS011;14521;48.148;-1.656;2023-06-19T19:50:43;3.80;;;2.58;;
26963;SDS011;14521;48.148;-1.656;2023-06-19T19:54:05;3.60;;;3.20;;
26963;SDS011;14521;48.148;-1.656;2023-06-19T19:57:27;2.78;;;2.58;;
26963;SDS011;14521;48.148;-1.656;2023-06-19T20:00:50;4.22;;;2.55;;
26963;SDS011;14521;48.148;-1.656;2023-06-19T20:04:12;2.22;;;2.10;;
26963;SDS011;14521;48.148;-1.656;2023-06-19T20:07:38;2.70;;;2.50;;
26963;SDS011;14521;48.148;-1.656;2023-06-19T20:11:00;3.30;;;2.97;;
26963;SDS011;14521;48.148;-1.656;2023-06-19T20:14:22;2.47;;;2.28;;
26963;SDS011;14521;48.148;-1.656;2023-06-19T20:17:45;4.18;;;2.97;;
26963;SDS011;14521;48.148;-1.656;2023-06-19T20:21:07;2.63;;;2.42;;
26963;SDS011;14521;48.148;-1.656;2023-06-19T20:24:30;2.50;;;2.40;;
26963;SDS011;14521;48.148;-1.656;2023-06-19T20:27:52;3.30;;;3.00;;